Tiempo atmosférico en la estación meteorológica de Amurrio, Araba/Álava (240 m.)



Fecha
DESCASC
Temp. máxima en grados centígrados (hora)
DESCASC
Temp. mínima en grados centígrados (hora)
DESCASC
Temp. media en grados centígrados
DESCASC
Racha de viento máxima en m/sg (hora)
DESCASC
Velocidad máxima media en intervalos de 10 minutos(hora)
DESCASC
Precipitaciones diarias en mm
DESCASC
Precipitaciones de 00:00 a 06:00 en mm
DESCASC
Precipitaciones de 06:00 a 12:00 en mm
DESCASC
Precipitaciones de 12:00 a 18:00 en mm
DESCASC
Precipitaciones de 18:00 a 24:00 en mm
DESCASC
25-04-2019 17.3 (15:20) 10 (07:40) 13.6 15.83 (14:10) 6.39 (18:40) 0.8 0.8 0 0 0
24-04-2019 17.3 (17:40) 6.9 (04:00) 12.1 19.72 (13:20) 9.17 (13:30) 4.8 0.2 0 0 4.6
23-04-2019 19.1 (12:40) 9.8 (23:50) 14.5 12.22 (14:30) 5.56 (14:20) 0.2 0 0 0.2 0
22-04-2019 21.7 (16:40) 9.5 (00:00) 15.6 8.06 (16:50) 4.44 (16:50) 0 0 0 0 0
21-04-2019 16.5 (13:10) 4.6 (00:00) 10.5 6.39 (13:50) 3.33 (13:50) 0 0 0 0 0
20-04-2019 20.3 (15:10) 6.2 (00:00) 13.2 9.44 (17:10) 5 (17:10) 0 0 0 0 0
19-04-2019 20 (18:10) 10.4 (00:00) 15.2 5.83 (18:10) 3.06 (17:00) 7.4 6.8 0.6 0 0
18-04-2019 17.9 (00:10) 11.7 (00:00) 14.8 11.67 (02:50) 6.67 (02:50) 7.4 0.2 2.8 1.6 2.8
17-04-2019 22 (16:00) 12.5 (00:00) 17.3 13.06 (06:30) 7.5 (06:20) 0 0 0 0 0
16-04-2019 20.8 (18:20) 7 (00:00) 13.9 6.11 (15:30) 2.78 (15:30) 0 0 0 0 0
15-04-2019 25.3 (15:50) 9.2 (00:00) 17.2 15.56 (16:40) 7.22 (16:40) 22.1 0 0 17.1 5
14-04-2019 21.4 (14:10) 8.8 (00:00) 15.1 6.94 (16:00) 3.33 (17:00) 0 0 0 0 0
13-04-2019 22.1 (15:20) -1.6 (-00:0) 10.3 6.67 (18:40) 3.89 (18:40) 0 0 0 0 0
12-04-2019 15.1 (16:00) 4.7 (00:00) 9.9 5.83 (14:30) 3.06 (15:10) 0 0 0 0 0
11-04-2019 10.9 (15:40) 6.1 (00:00) 8.5 6.67 (13:50) 3.61 (13:50) 3.2 0 0.8 2.2 0.2
10-04-2019 14.2 (14:00) 4.1 (00:00) 9.1 8.61 (16:10) 4.72 (16:10) 1.4 0 0 1.2 0.2
09-04-2019 17.2 (15:00) 3.6 (00:00) 10.4 12.5 (16:30) 6.67 (16:30) 10.4 0 0 7.2 3.2
08-04-2019 13.5 (14:40) 6.9 (00:00) 10.2 11.11 (01:00) 5.83 (01:10) 4.6 0.2 1.8 2.6 0
07-04-2019 15.8 (18:20) 4.8 (00:00) 10.3 11.39 (22:00) 5.83 (22:00) 0 0 0 0 0
06-04-2019 14.9 (16:40) 2.9 (00:00) 8.9 12.78 (14:50) 5 (19:00) 4.8 0 0 0 4.8
05-04-2019 13.6 (14:10) 5.6 (00:00) 9.6 9.72 (05:00) 4.44 (00:20) 0 0 0 0 0
04-04-2019 15.3 (17:50) 1.7 (00:00) 8.5 11.39 (16:30) 4.72 (22:50) 0.4 0.4 0 0 0
03-04-2019 11.5 (13:30) 2.3 (00:00) 6.9 12.78 (14:00) 6.67 (14:00) 4 0 0 0.4 3.6
02-04-2019 16.4 (13:40) 3.6 (00:00) 10 8.89 (18:40) 4.44 (15:50) 0.8 0 0 0 0.8
01-04-2019 17.2 (13:30) 9.6 (00:00) 13.4 8.33 (02:10) 3.89 (02:20) 0 0 0 0 0
31-03-2019 21.3 (14:30) 3.4 (00:00) 12.3 7.5 (17:50) 3.89 (17:10) 0 0 0 0 0
30-03-2019 21.2 (17:10) 8.4 (00:00) 14.8 8.06 (07:30) 5 (07:30) 0 0 0 0 0
29-03-2019 20.9 (17:10) 0.4 (00:00) 10.6 9.17 (14:20) 4.44 (21:00) 0 0 0 0 0
28-03-2019 15.9 (14:10) 4.1 (00:00) 10 6.67 (12:30) 3.89 (17:30) 0 0 0 0 0
27-03-2019 15.2 (14:40) 0.2 (00:00) 7.7 7.5 (18:40) 4.72 (18:40) 0 0 0 0 0

Gráficas

Temp. máximas Temp. mínimas Temp. medias Precipitaciones Rachas de viento máximas Velocidades máximas media en intervalos de 10 minutos

Datos horarios

Fecha y hora oficial Temperatura (ºC) Velocidad del viento (km/h) Dirección del viento Racha (km/h) Dirección de racha Precipitación (mm) Presión (hPa) Tendencia (hPa) Humedad (%)
2019-04-25 23:00:00 11.9 8 Sudeste 23 Sur 0 -- -- 56
2019-04-25 22:00:00 12.1 5 Sudeste 38 Sur 0 -- -- 57
2019-04-25 21:00:00 12.6 12 Sudoeste 49 Sudoeste 0 -- -- 61
2019-04-25 20:00:00 14.3 9 Sur 46 Sur 0 -- -- 48
2019-04-25 19:00:00 15.7 22 Sur 46 Sudeste 0 -- -- 47
2019-04-25 18:00:00 17 15 Sudoeste 47 Sur 0 -- -- 40
2019-04-25 17:00:00 16.4 11 Sudoeste 40 Sur 0 -- -- 42
2019-04-25 16:00:00 17.3 17 Sudoeste 41 Sudoeste 0 -- -- 41
2019-04-25 15:00:00 16.8 15 Sur 57 Sudoeste 0 -- -- 40
2019-04-25 14:00:00 16 18 Sudoeste 50 Sudoeste 0 -- -- 45
2019-04-25 13:00:00 15.7 21 Sudoeste 47 Sudoeste 0 -- -- 46
2019-04-25 12:00:00 13.4 12 Sudoeste 39 Sur 0 -- -- 55
2019-04-25 11:00:00 13.1 13 Sudeste 34 Sudoeste 0 -- -- 54
2019-04-25 10:00:00 11.3 10 Nordeste 26 Este 0 -- -- 57
2019-04-25 09:00:00 10.4 10 Oeste 33 Sudoeste 0 -- -- 61
2019-04-25 08:00:00 10.2 8 Sur 26 Sur 0 -- -- 61
2019-04-25 07:00:00 10.3 10 Sur 51 Sur 0 -- -- 63
2019-04-25 06:00:00 10.5 15 Sur 48 Sudeste 0 -- -- 64
2019-04-25 05:00:00 10.9 18 Sur 42 Sur 0 -- -- 67
2019-04-25 04:00:00 11 12 Sur 36 Sur 0 -- -- 72
2019-04-25 03:00:00 11.1 13 Sur -- -- -- -- -- 75
2019-04-25 02:00:00 11.3 14 Sur 30 Sur 0.2 -- -- 76
2019-04-25 01:00:00 11.9 14 Sur 40 Sudoeste 0.4 -- -- 72
2019-04-25 00:00:00 13.2 17 Sur 36 Sur 0 -- -- 68
2019-04-24 23:00:00 13.3 9 Sudoeste 30 Sur 0 -- -- 61
2019-04-24 22:00:00 13.7 13 Sur 52 Sudeste 0 -- -- 63
2019-04-24 21:00:00 13.6 20 Sur 50 Sur 0.2 -- -- 66
2019-04-24 20:00:00 12.9 7 Sur 28 Sur 2 -- -- 84
2019-04-24 19:00:00 13.6 17 Sur 59 Oeste 2.4 -- -- 80
2019-04-24 18:00:00 17 16 Sur 42 Sur 0 -- -- 59
2019-04-24 17:00:00 16 17 Sur 42 Sudeste 0 -- -- 67
2019-04-24 16:00:00 16.2 27 Sur 55 Sudeste 0 -- -- 57
2019-04-24 15:00:00 16.1 23 Sudeste 50 Sudeste 0 -- -- 54
2019-04-24 14:00:00 15.9 26 Sur 71 Sur 0 -- -- 53
2019-04-24 13:00:00 14.3 22 Sur 45 Sur 0 -- -- 54
2019-04-24 12:00:00 11.7 21 Sudeste 39 Este 0 -- -- 58
2019-04-24 11:00:00 11 15 Sudeste 34 Sudeste 0 -- -- 57
2019-04-24 10:00:00 10.4 15 Sudeste 36 Este 0 -- -- 57
2019-04-24 09:00:00 10.1 16 Sudeste 39 Sur 0 -- -- 58
2019-04-24 08:00:00 9.7 13 Sur 37 Sur 0 -- -- 59
2019-04-24 07:00:00 9.4 14 Sudeste 30 Este 0 -- -- 61
2019-04-24 06:00:00 9.5 11 Sudeste 32 Sudoeste 0 -- -- 63
2019-04-24 05:00:00 8.4 9 Sur 16 Sur 0 -- -- 76
2019-04-24 04:00:00 6.9 0 Calma 9 Sudoeste 0 -- -- 92
2019-04-24 03:00:00 8.2 0 Calma 4 Sur 0 -- -- 90
2019-04-24 02:00:00 9 2 Oeste 5 Sudeste 0.2 -- -- 88
2019-04-24 01:00:00 9.5 2 Sur 5 Sudeste 0 -- -- 81
2019-04-24 00:00:00 9.8 0 Calma 19 Noroeste 0 -- -- 74
2019-04-23 23:00:00 11.7 9 Noroeste 27 Sudoeste 0 -- -- 71
2019-04-23 22:00:00 12.8 5 Norte 22 Sudoeste 0 -- -- 54
2019-04-23 21:00:00 13 4 Sudeste 10 Este 0 -- -- 63
2019-04-23 20:00:00 14 7 Sur 15 Sudeste 0 -- -- 54
2019-04-23 19:00:00 14.7 9 Sudeste 21 Sur 0 -- -- 53
2019-04-23 18:00:00 15.2 10 Sur 24 Sur 0 -- -- 54
2019-04-23 17:00:00 14.4 5 Este 11 Sudeste 0 -- -- 63
2019-04-23 16:00:00 12.6 9 Este 29 Sudeste 0.2 -- -- 78
2019-04-23 15:00:00 13.6 8 Sudeste 44 Sudoeste 0 -- -- 64
2019-04-23 14:00:00 17 8 Sudoeste 32 Sudoeste 0 -- -- 55
2019-04-23 13:00:00 18.1 17 Sudoeste 31 Sudoeste 0 -- -- 52
2019-04-23 12:00:00 17 12 Sur 23 Sudoeste 0 -- -- 63
2019-04-23 11:00:00 16.3 8 Sur 22 Sur 0 -- -- 63
2019-04-23 10:00:00 15 6 Sur 17 Sur 0 -- -- 70
2019-04-23 09:00:00 13.4 0 Calma 22 Sudeste 0 -- -- 74
2019-04-23 08:00:00 12.6 8 Sudeste 17 Sudeste 0 -- -- 75
2019-04-23 07:00:00 12.3 3 Sudeste 9 Este 0 -- -- 76
2019-04-23 06:00:00 13.2 4 Sudeste 17 Sudeste 0 -- -- 71
2019-04-23 05:00:00 12.8 2 Nordeste 11 Sudeste 0 -- -- 71
2019-04-23 04:00:00 12.5 0 Calma 6 Oeste 0 -- -- 74
2019-04-23 03:00:00 12.7 0 Calma 8 Sudeste 0 -- -- 72
2019-04-23 02:00:00 13.4 0 Calma 7 Norte 0 -- -- 67
2019-04-23 01:00:00 13.9 3 Noroeste 7 Oeste 0 -- -- 66
2019-04-23 00:00:00 14 4 Este 10 Sur 0 -- -- 67
2019-04-22 23:00:00 14.8 4 Sur 14 Sur 0 -- -- 63
2019-04-22 22:00:00 15.2 6 Sur 15 Sudoeste 0 -- -- 62
2019-04-22 21:00:00 17.5 0 Calma 23 Sudeste 0 -- -- 58
2019-04-22 20:00:00 19 9 Sudeste 21 Sur 0 -- -- 50
2019-04-22 19:00:00 20 8 Sur 24 Sur 0 -- -- 45
2019-04-22 18:00:00 21 8 Sur 26 Sur 0 -- -- 44
2019-04-22 17:00:00 21.4 12 Sur 29 Sur 0 -- -- 44
2019-04-22 16:00:00 21.2 12 Sur 26 Sudeste 0 -- -- 42
2019-04-22 15:00:00 21.3 7 Sur 26 Sudeste 0 -- -- 44
2019-04-22 14:00:00 21.3 9 Sudeste 24 Sur 0 -- -- 43
2019-04-22 13:00:00 19.4 4 Nordeste 11 Nordeste 0 -- -- 54
2019-04-22 12:00:00 17.3 2 Norte 7 Oeste 0 -- -- 62
2019-04-22 11:00:00 14.9 3 Noroeste 7 Oeste 0 -- -- 72
2019-04-22 10:00:00 12.7 2 Norte 4 Sudeste 0 -- -- 84
2019-04-22 09:00:00 10.3 0 Calma 2 Nordeste 0 -- -- 96
2019-04-22 08:00:00 9.6 0 Calma 4 Sudoeste 0 -- -- 97
2019-04-22 07:00:00 9.5 0 Calma 4 Este 0 -- -- 96
2019-04-22 06:00:00 9.8 0 Calma 3 Sudoeste 0 -- -- 96
2019-04-22 05:00:00 9.9 0 Calma 3 Oeste 0 -- -- 95
2019-04-22 04:00:00 10.1 2 Sudoeste 4 Sudoeste 0 -- -- 93
2019-04-22 03:00:00 10.2 2 Oeste 4 Sudoeste 0 -- -- 93
2019-04-22 02:00:00 10.2 0 Calma 4 Sudoeste 0 -- -- 93
2019-04-22 01:00:00 10.6 3 Sudoeste 5 Sudoeste 0 -- -- 90
2019-04-22 00:00:00 11 0 Calma 4 Este 0 -- -- 91
2019-04-21 23:00:00 11.4 3 Noroeste 10 Noroeste 0 -- -- 87
2019-04-21 22:00:00 12 5 Noroeste 12 Noroeste 0 -- -- 85
2019-04-21 21:00:00 12.2 9 Noroeste -- -- -- -- -- 86
2019-04-21 20:00:00 13.1 5 Noroeste 13 Oeste 0 -- -- 80
2019-04-21 19:00:00 13.3 6 Oeste 14 Noroeste 0 -- -- 80
2019-04-21 18:00:00 13.3 5 Noroeste 18 Noroeste 0 -- -- 81
2019-04-21 17:00:00 14.3 8 Norte 19 Norte 0 -- -- 79
2019-04-21 16:00:00 16.1 8 Noroeste 21 Noroeste 0 -- -- 66
2019-04-21 15:00:00 16 9 Norte 19 Norte 0 -- -- 66
2019-04-21 14:00:00 15.8 12 Norte 23 Norte 0 -- -- 61
2019-04-21 13:00:00 16.3 10 Noroeste 19 Noroeste 0 -- -- 59
2019-04-21 12:00:00 14.1 2 Noroeste 6 Oeste 0 -- -- 68
2019-04-21 11:00:00 9.8 0 Calma 5 Este 0 -- -- 84
2019-04-21 10:00:00 7 2 Este 5 Nordeste 0 -- -- 94
2019-04-21 09:00:00 5.7 0 Calma 3 Sudoeste 0 -- -- 95
2019-04-21 08:00:00 4.7 0 Calma 4 Sudoeste 0 -- -- 94
2019-04-21 07:00:00 4.9 0 Calma 6 Sudoeste 0 -- -- 93
2019-04-21 06:00:00 5.5 0 Calma 8 Sudoeste 0 -- -- 93
2019-04-21 05:00:00 6.3 3 Oeste 8 Sudoeste 0 -- -- 92
2019-04-21 04:00:00 6.9 4 Sudoeste 8 Sudoeste 0 -- -- 91
2019-04-21 03:00:00 7.4 3 Sudoeste 7 Sudoeste 0 -- -- 89
2019-04-21 02:00:00 8.2 2 Sudoeste 6 Sudoeste 0 -- -- 88
2019-04-21 01:00:00 9.5 2 Sur 5 Sudoeste 0 -- -- 85
2019-04-21 00:00:00 10.3 5 Sudoeste 8 Oeste 0 -- -- 81
2019-04-20 23:00:00 11.9 0 Calma 5 Sudoeste 0 -- -- 78
2019-04-20 22:00:00 13.1 3 Oeste 9 Oeste 0 -- -- 71
2019-04-20 21:00:00 15.4 5 Oeste 23 Noroeste 0 -- -- 64
2019-04-20 20:00:00 16.6 11 Noroeste 23 Noroeste 0 -- -- 61
2019-04-20 19:00:00 17.5 10 Noroeste 27 Noroeste 0 -- -- 57
2019-04-20 18:00:00 18.1 13 Norte 34 Norte 0 -- -- 53
2019-04-20 17:00:00 19.2 15 Norte 31 Noroeste 0 -- -- 43
2019-04-20 16:00:00 20.3 12 Norte 28 Noroeste 0 -- -- 40
2019-04-20 15:00:00 20.2 13 Noroeste 24 Noroeste 0 -- -- 42
2019-04-20 14:00:00 19.6 11 Noroeste 18 Noroeste 0 -- -- 48
2019-04-20 13:00:00 19 9 Noroeste 18 Noroeste 0 -- -- 53
2019-04-20 12:00:00 17.8 10 Norte 22 Noroeste 0 -- -- 55
2019-04-20 11:00:00 15.6 2 Este 6 Nordeste 0 -- -- 71
2019-04-20 10:00:00 12.5 2 Nordeste 4 Este 0 -- -- 79
2019-04-20 09:00:00 9.1 0 Calma 2 Nordeste 0 -- -- 96
2019-04-20 08:00:00 6.5 0 Calma 4 Sudoeste 0 -- -- 97
2019-04-20 07:00:00 6.4 2 Oeste 3 Oeste 0 -- -- 96
2019-04-20 06:00:00 6.8 2 Sudoeste 5 Sudoeste 0 -- -- 96
2019-04-20 05:00:00 7.2 0 Calma 5 Sudoeste 0 -- -- 96
2019-04-20 04:00:00 7.4 4 Sudoeste 5 Sudoeste 0 -- -- 95
2019-04-20 03:00:00 8.1 0 Calma 4 Sudoeste 0 -- -- 93
2019-04-20 02:00:00 8.9 2 Sudoeste 4 Sudoeste 0 -- -- 92
2019-04-20 01:00:00 9.5 0 Calma 6 Sudoeste 0 -- -- 90
2019-04-20 00:00:00 10.4 2 Oeste 6 Sudoeste 0 -- -- 88
2019-04-19 23:00:00 11.7 0 Calma 6 Sudoeste 0 -- -- 84
2019-04-19 22:00:00 14.3 0 Calma 11 Noroeste 0 -- -- 73
2019-04-19 21:00:00 16.8 5 Noroeste 18 Noroeste 0 -- -- 60
2019-04-19 20:00:00 18.4 6 Noroeste 20 Noroeste 0 -- -- 57
2019-04-19 19:00:00 19.4 9 Noroeste 21 Noroeste 0 -- -- 54
2019-04-19 18:00:00 19.9 8 Norte 19 Norte 0 -- -- 55
2019-04-19 17:00:00 19.2 11 Norte 19 Norte 0 -- -- 55
2019-04-19 16:00:00 18.7 4 Nordeste 15 Noroeste 0 -- -- 57
2019-04-19 15:00:00 17.9 8 Noroeste 17 Noroeste 0 -- -- 63
2019-04-19 14:00:00 17.4 9 Noroeste 15 Noroeste 0 -- -- 62
2019-04-19 13:00:00 17.7 8 Sudeste 17 Sudeste 0 -- -- 57
2019-04-19 12:00:00 16.3 5 Este 12 Este 0 -- -- 70
2019-04-19 11:00:00 13.5 6 Este 12 Nordeste 0 -- -- 89
2019-04-19 10:00:00 11.3 4 Norte 12 Norte 0 -- -- 97
2019-04-19 09:00:00 11.1 3 Sudeste 11 Noroeste 0 -- -- 96
2019-04-19 08:00:00 10.9 2 Oeste 14 Sudeste 0.4 -- -- 98
2019-04-19 07:00:00 10.9 5 Sudoeste 13 Sudoeste 0.2 -- -- 98
2019-04-19 06:00:00 10.9 3 Noroeste 5 Sudoeste 1 -- -- 99
2019-04-19 05:00:00 10.9 2 Norte 9 Oeste 0.6 -- -- 99
2019-04-19 04:00:00 11.1 3 Norte 6 Sudoeste 1 -- -- 98
2019-04-19 03:00:00 11.3 2 Oeste 5 Oeste 3.2 -- -- 97
2019-04-19 02:00:00 11.4 0 Calma 5 Noroeste 0.8 -- -- 96
2019-04-19 01:00:00 11.7 2 Sudeste 17 Oeste 0.2 -- -- 93
2019-04-19 00:00:00 11.7 5 Noroeste 14 Norte 0 -- -- 92
2019-04-18 23:00:00 12 9 Oeste 23 Noroeste 0 -- -- 91
2019-04-18 22:00:00 12.2 8 Noroeste 23 Noroeste 0 -- -- 93
2019-04-18 21:00:00 12.2 13 Noroeste 23 Noroeste 0.2 -- -- 94
2019-04-18 20:00:00 12.9 3 Oeste 14 Noroeste 1.6 -- -- 94
2019-04-18 19:00:00 13.2 7 Oeste 18 Oeste 1 -- -- 92
2019-04-18 18:00:00 13.8 8 Oeste -- -- -- -- -- 87
2019-04-18 17:00:00 15 8 Noroeste 23 Noroeste 0 -- -- 81
2019-04-18 16:00:00 16.9 2 Noroeste 8 Sudeste 0 -- -- 66
2019-04-18 15:00:00 15.9 3 Sur 14 Sudeste 0 -- -- 74
2019-04-18 14:00:00 13.7 5 Sudeste 12 Este 0.2 -- -- 87
2019-04-18 13:00:00 12.9 2 Este 15 Sudeste 1 -- -- 91
2019-04-18 12:00:00 12.6 7 Sudeste 26 Sur 1.4 -- -- 88
2019-04-18 11:00:00 12.7 9 Sudeste 19 Sur 0.4 -- -- 86
2019-04-18 10:00:00 13 10 Sur 26 Sudeste 0.2 -- -- 84
2019-04-18 09:00:00 12.9 10 Sur 31 Sur 0.6 -- -- 84
2019-04-18 08:00:00 13.8 17 Sur 28 Sur 0 -- -- 78
2019-04-18 07:00:00 13.6 6 Sudeste 19 Sur 0.2 -- -- 81
2019-04-18 06:00:00 14.5 8 Sudeste 35 Sudeste 0 -- -- 73
2019-04-18 05:00:00 15.3 15 Sudeste 35 Sudeste 0 -- -- 65
2019-04-18 04:00:00 15.7 18 Este 40 Sudeste 0 -- -- 61
2019-04-18 03:00:00 16.5 20 Sudeste 42 Sudeste 0 -- -- 58
2019-04-18 02:00:00 16.5 10 Sudeste 24 Sudeste 0 -- -- 60
2019-04-18 01:00:00 16.7 10 Sur 21 Sur 0.2 -- -- 70
2019-04-18 00:00:00 17.5 9 Sur 29 Sur 0 -- -- 60
2019-04-17 23:00:00 17.9 10 Sur 28 Sur 0 -- -- 66
2019-04-17 22:00:00 19.3 8 Sudeste 26 Sur 0 -- -- 54
2019-04-17 21:00:00 19.5 11 Sur 35 Sur 0 -- -- 54
2019-04-17 20:00:00 20.6 14 Sudeste 30 Este 0 -- -- 52
2019-04-17 19:00:00 21.4 15 Sudeste 32 Sudeste 0 -- -- 51
2019-04-17 18:00:00 21.7 17 Sudeste 38 Sur 0 -- -- 48
2019-04-17 17:00:00 21.6 18 Sudeste 36 Sudeste 0 -- -- 48
2019-04-17 16:00:00 22 23 Sur 37 Sur 0 -- -- 45
2019-04-17 15:00:00 21.4 21 Sur 39 Sur 0 -- -- 47
2019-04-17 14:00:00 19.9 18 Sur 36 Sur 0 -- -- 52
2019-04-17 13:00:00 18.3 17 Sudeste 32 Sur 0 -- -- 57
2019-04-17 12:00:00 16 13 Sudeste 36 Sur 0 -- -- 62
2019-04-17 11:00:00 15.3 20 Sudeste 41 Sur 0 -- -- 61
2019-04-17 10:00:00 14.9 20 Sudeste 37 Sudeste 0 -- -- 62
2019-04-17 09:00:00 13.6 13 Sudeste 35 Sudeste 0 -- -- 67
2019-04-17 08:00:00 13.3 19 Este 37 Sudeste 0 -- -- 68
2019-04-17 07:00:00 14.1 19 Sudeste 47 Este 0 -- -- 62
2019-04-17 06:00:00 15.3 22 Sudeste 44 Este 0 -- -- 57
2019-04-17 05:00:00 15.6 24 Sudeste 46 Sudeste 0 -- -- 57
2019-04-17 04:00:00 16.7 12 Sudeste 37 Sudeste 0 -- -- 54
2019-04-17 03:00:00 16.8 8 Sudeste 31 Sudeste 0 -- -- 54
2019-04-17 02:00:00 17.4 20 Sur 35 Sur 0 -- -- 52
2019-04-17 01:00:00 16.3 13 Sudeste 30 Sur 0 -- -- 53
2019-04-17 00:00:00 12.5 2 Sur 8 Sudoeste 0 -- -- 77
2019-04-16 23:00:00 13.4 4 Sudoeste 8 Sudoeste 0 -- -- 75
2019-04-16 22:00:00 15 0 Calma 22 Sudeste 0 -- -- 68
2019-04-16 21:00:00 18.4 7 Sudeste 17 Sudeste 0 -- -- 52
2019-04-16 20:00:00 20.2 6 Sudeste 15 Sudeste 0 -- -- 47
2019-04-16 19:00:00 20.8 7 Sur 17 Sur 0 -- -- 45
2019-04-16 18:00:00 20.5 6 Sudoeste 18 Sur 0 -- -- 47
2019-04-16 17:00:00 20.2 6 Sudoeste 18 Este 0 -- -- 45
2019-04-16 16:00:00 19.9 7 Este 22 Este 0 -- -- 44
2019-04-16 15:00:00 19.5 6 Sudeste 17 Sudeste 0 -- -- 46
2019-04-16 14:00:00 18.7 7 Este 18 Este 0 -- -- 52
2019-04-16 13:00:00 17.5 5 Nordeste 13 Nordeste 0 -- -- 52
2019-04-16 12:00:00 15.1 4 Norte 6 Norte 0 -- -- 59
2019-04-16 11:00:00 12 5 Nordeste 8 Norte 0 -- -- 96
2019-04-16 10:00:00 8.8 2 Noroeste 5 Nordeste 0 -- -- 100
2019-04-16 09:00:00 7.4 2 Este 4 Este 0 -- -- 100
2019-04-16 08:00:00 7.3 3 Sudoeste 6 Sudoeste 0 -- -- 100
2019-04-16 07:00:00 7.2 0 Calma 4 Sudoeste 0 -- -- 99
2019-04-16 06:00:00 8.4 0 Calma 5 Sudoeste 0 -- -- 99
2019-04-16 05:00:00 8.2 3 Sudoeste 6 Sudoeste 0 -- -- 98
2019-04-16 04:00:00 9.3 4 Sudoeste 6 Sudoeste 0 -- -- 97
2019-04-16 03:00:00 9.8 0 Calma 6 Sudoeste 0 -- -- 98
2019-04-16 02:00:00 10.6 0 Calma 4 Sudoeste 0 -- -- 97
2019-04-16 01:00:00 11.2 2 Sudeste 6 Este 0 -- -- 96
2019-04-16 00:00:00 11.4 0 Calma 5 Nordeste 0.2 -- -- 95
2019-04-15 23:00:00 11.7 2 Norte 10 Noroeste 2 -- -- 96
2019-04-15 22:00:00 12.3 3 Sudoeste 5 Sudoeste 0.8 -- -- 96
2019-04-15 21:00:00 12.3 4 Noroeste 7 Norte 0.4 -- -- 92
2019-04-15 20:00:00 12.5 4 Norte 21 Norte 0.2 -- -- 89
2019-04-15 19:00:00 12.9 9 Norte 31 Noroeste 1.4 -- -- 91
2019-04-15 18:00:00 14.6 3 Sudoeste -- -- -- -- -- 95
2019-04-15 17:00:00 15.3 7 Norte 56 Oeste 13 -- -- 92
2019-04-15 16:00:00 24.8 15 Este 28 Este 0 -- -- 47
2019-04-15 15:00:00 25 15 Sudeste 30 Este 0 -- -- 46
2019-04-15 14:00:00 22.5 13 Este 23 Este 0 -- -- 54
2019-04-15 13:00:00 20.8 8 Sur 29 Sur 0 -- -- 60
2019-04-15 12:00:00 21.1 17 Sur 28 Sur 0 -- -- 57
2019-04-15 11:00:00 20.4 9 Sudeste 22 Sur 0 -- -- 59
2019-04-15 10:00:00 17.3 0 Calma 12 Sudeste 0 -- -- 70
2019-04-15 09:00:00 14.6 3 Sudeste 8 Sudeste 0 -- -- 83
2019-04-15 08:00:00 12.8 5 Sudeste 9 Sudeste 0 -- -- 89
2019-04-15 07:00:00 10.6 3 Sudeste 6 Sudeste 0 -- -- 95
2019-04-15 06:00:00 9.8 0 Calma 9 Sudoeste 0 -- -- 95
2019-04-15 05:00:00 9.3 3 Sudoeste 7 Sudoeste 0 -- -- 94
2019-04-15 04:00:00 9.5 0 Calma 6 Sudoeste 0 -- -- 92
2019-04-15 03:00:00 10.1 0 Calma 8 Sudoeste 0 -- -- 91
2019-04-15 02:00:00 10.7 0 Calma 5 Sudoeste 0 -- -- 91
2019-04-15 01:00:00 11.6 3 Sudoeste 5 Sudoeste 0 -- -- 88
2019-04-15 00:00:00 12.3 3 Sudoeste 5 Sudoeste 0 -- -- 86
2019-04-14 23:00:00 13.4 2 Oeste 8 Sudoeste 0 -- -- 81
2019-04-14 22:00:00 15.2 7 Sudoeste 9 Sudoeste 0 -- -- 74
2019-04-14 21:00:00 17.5 5 Oeste 10 Oeste 0 -- -- 66
2019-04-14 20:00:00 18.9 6 Noroeste 13 Norte 0 -- -- 62
2019-04-14 19:00:00 20 9 Noroeste 18 Noroeste 0 -- -- 54
2019-04-14 18:00:00 20.7 11 Norte 20 Norte 0 -- -- 54
2019-04-14 17:00:00 21.1 12 Norte 20 Norte 0 -- -- 53
2019-04-14 16:00:00 20.5 8 Noroeste 25 Noroeste 0 -- -- 51
2019-04-14 15:00:00 21 10 Norte 18 Norte 0 -- -- 48
2019-04-14 14:00:00 21.2 7 Noroeste 17 Noroeste 0 -- -- 48
2019-04-14 13:00:00 19.8 8 Noroeste 14 Noroeste 0 -- -- 49
2019-04-14 12:00:00 19.2 3 Norte 6 Nordeste 0 -- -- 45
2019-04-14 11:00:00 15.2 2 Nordeste 4 Nordeste 0 -- -- 56
2019-04-14 10:00:00 12.9 3 Este 6 Nordeste 0 -- -- 68
2019-04-14 09:00:00 9.7 0 Calma 3 Oeste 0 -- -- 82
2019-04-14 08:00:00 9 3 Sudoeste 6 Oeste 0 -- -- 82
2019-04-14 07:00:00 9.2 0 Calma 5 Sudeste 0 -- -- 82
2019-04-14 06:00:00 8.9 0 Calma 3 Sudoeste 0 -- -- 81
2019-04-14 05:00:00 9 0 Calma 5 Sudoeste 0 -- -- 79
2019-04-14 04:00:00 9.7 0 Calma 5 Sudoeste 0 -- -- 78
2019-04-14 03:00:00 9.8 0 Calma 4 Sudoeste 0 -- -- 77
2019-04-14 02:00:00 9.8 0 Calma 3 Sudoeste 0 -- -- 75
2019-04-14 01:00:00 10.4 0 Calma 3 Oeste 0 -- -- 74
2019-04-14 00:00:00 10.5 0 Calma 2 Oeste 0 -- -- 68
2019-04-13 23:00:00 10.6 0 Calma 6 Sudoeste 0 -- -- 64
2019-04-13 22:00:00 12.7 3 Sudoeste 9 Sudoeste 0 -- -- 55
2019-04-13 21:00:00 16 7 Sudoeste 14 Noroeste 0 -- -- 43
2019-04-13 20:00:00 19 5 Noroeste 20 Norte 0 -- -- 36
2019-04-13 19:00:00 20.6 13 Noroeste 24 Norte 0 -- -- 33
2019-04-13 18:00:00 22 3 Norte 10 Norte 0 -- -- 28
2019-04-13 17:00:00 21.8 4 Este 15 Nordeste 0 -- -- 26
2019-04-13 16:00:00 21.7 4 Este 14 Nordeste 0 -- -- 25
2019-04-13 15:00:00 21.5 4 Noroeste 13 Noroeste 0 -- -- 26
2019-04-13 14:00:00 21.2 4 Nordeste 10 Norte 0 -- -- 21
2019-04-13 13:00:00 18 2 Norte 8 Nordeste 0 -- -- 30
2019-04-13 12:00:00 15.4 4 Nordeste 9 Nordeste 0 -- -- 50
2019-04-13 11:00:00 10.1 2 Este 5 Este 0 -- -- 63
2019-04-13 10:00:00 4.5 0 Calma 4 Este 0 -- -- 77
2019-04-13 09:00:00 1.1 0 Calma 4 Sudoeste 0 -- -- 91
2019-04-13 08:00:00 -1.6 0 Calma 4 Sudoeste 0 -- -- 94
2019-04-13 07:00:00 -1.1 0 Calma 4 Sudoeste 0 -- -- 94
2019-04-13 06:00:00 -0.6 0 Calma 4 Sudoeste 0 -- -- 93
2019-04-13 05:00:00 0 0 Calma 5 Sudoeste 0 -- -- 93
2019-04-13 04:00:00 0.8 0 Calma 4 Sudoeste 0 -- -- 92
2019-04-13 03:00:00 1.6 2 Sudoeste 5 Sudoeste 0 -- -- 92
2019-04-13 02:00:00 2.5 0 Calma 4 Sudoeste 0 -- -- 91
2019-04-13 01:00:00 3.4 0 Calma 10 Sur 0 -- -- 89
2019-04-13 00:00:00 4.7 4 Sur 8 Sur 0 -- -- 87
2019-04-12 23:00:00 5.9 2 Sudoeste 4 Sudoeste 0 -- -- 83
2019-04-12 22:00:00 7.9 0 Calma 10 Sudoeste 0 -- -- 76
2019-04-12 21:00:00 10.5 6 Sudoeste 15 Norte 0 -- -- 67
2019-04-12 20:00:00 13.3 4 Norte 16 Norte 0 -- -- 55
2019-04-12 19:00:00 14.3 6 Norte 18 Norte 0 -- -- 52
2019-04-12 18:00:00 14.7 11 Noroeste 19 Noroeste 0 -- -- 52
2019-04-12 17:00:00 14.8 5 Noroeste 18 Norte 0 -- -- 49
2019-04-12 16:00:00 15.1 8 Norte 20 Noroeste 0 -- -- 51
2019-04-12 15:00:00 14.6 5 Norte 21 Noroeste 0 -- -- 55
2019-04-12 14:00:00 13.5 8 Noroeste 20 Noroeste 0 -- -- 60
2019-04-12 13:00:00 13.1 3 Sudoeste 11 Este 0 -- -- 67
2019-04-12 12:00:00 12.4 3 Nordeste 10 Sudeste 0 -- -- 73
2019-04-12 11:00:00 10.7 2 Este 6 Sudeste 0 -- -- 85
2019-04-12 10:00:00 8 0 Calma 4 Sudoeste 0 -- -- 99
2019-04-12 09:00:00 7 0 Calma 5 Nordeste 0 -- -- 100
2019-04-12 08:00:00 6.6 0 Calma 4 Sudoeste 0 -- -- 100
2019-04-12 07:00:00 6.5 0 Calma 4 Sudoeste 0 -- -- 99
2019-04-12 06:00:00 6.4 0 Calma 4 Sudoeste 0 -- -- 99
2019-04-12 05:00:00 6.7 0 Calma 4 Sudoeste 0 -- -- 98
2019-04-12 04:00:00 7 2 Sudoeste 5 Sudoeste 0 -- -- 98
2019-04-12 03:00:00 7.3 0 Calma 5 Oeste 0 -- -- 98
2019-04-12 02:00:00 7.5 2 Norte 5 Sudoeste 0 -- -- 97
2019-04-12 01:00:00 8.3 0 Calma 6 Oeste 0 -- -- 97
2019-04-12 00:00:00 8.6 0 Calma 3 Sudeste 0 -- -- 96
2019-04-11 23:00:00 8.7 0 Calma 4 Noroeste 0 -- -- 95
2019-04-11 22:00:00 9 0 Calma 4 Noroeste 0 -- -- 95
2019-04-11 21:00:00 9.3 3 Oeste 8 Noroeste 0 -- -- 92
2019-04-11 20:00:00 9.5 5 Oeste 15 Noroeste 0.2 -- -- 92
2019-04-11 19:00:00 10.1 6 Oeste 16 Oeste 0 -- -- 90
2019-04-11 18:00:00 9.8 6 Oeste 24 Noroeste 1.8 -- -- 93
2019-04-11 17:00:00 10.2 6 Norte 17 Noroeste 0 -- -- 89
2019-04-11 16:00:00 10.8 10 Noroeste 23 Noroeste 0 -- -- 82
2019-04-11 15:00:00 10.3 8 Noroeste 21 Noroeste 0.2 -- -- 90
2019-04-11 14:00:00 10 13 Noroeste 24 Noroeste 0.2 -- -- 87
2019-04-11 13:00:00 10.4 5 Norte 10 Noroeste 0 -- -- 86
2019-04-11 12:00:00 9.7 0 Calma 5 Sur 0.2 -- -- 89
2019-04-11 11:00:00 8.4 2 Este 5 Nordeste 0 -- -- 98
2019-04-11 10:00:00 7.7 0 Calma 4 Sudoeste 0.4 -- -- 98
2019-04-11 09:00:00 6.9 0 Calma 3 Norte 0 -- -- 98
2019-04-11 08:00:00 6.3 3 Sudoeste 10 Sudoeste 0.2 -- -- 97
2019-04-11 07:00:00 6.2 2 Oeste 5 Oeste 0 -- -- 95
2019-04-11 06:00:00 6.6 0 Calma 6 Sudoeste 0 -- -- 95
2019-04-11 05:00:00 6.6 6 Sudoeste 8 Sudoeste 0 -- -- 92
2019-04-11 04:00:00 8 2 Nordeste 6 Noroeste 0 -- -- 92
2019-04-11 03:00:00 8 0 Calma 5 Oeste 0 -- -- 95
2019-04-11 02:00:00 8 3 Sudoeste 5 Sudoeste 0 -- -- 93
2019-04-11 01:00:00 8.9 2 Oeste 7 Oeste 0 -- -- 90
2019-04-11 00:00:00 9.2 3 Noroeste 9 Noroeste 0 -- -- 88
2019-04-10 23:00:00 9.4 6 Noroeste 14 Noroeste 0.2 -- -- 85
2019-04-10 22:00:00 9.8 3 Noroeste 13 Norte 0 -- -- 84
2019-04-10 21:00:00 10.5 9 Noroeste 20 Noroeste 0 -- -- 76
2019-04-10 20:00:00 11.4 9 Noroeste 28 Noroeste 0 -- -- 73
2019-04-10 19:00:00 12.6 11 Norte 25 Noroeste 0 -- -- 67
2019-04-10 18:00:00 12.4 12 Norte 21 Norte 0 -- -- 71
2019-04-10 17:00:00 12.1 7 Norte 31 Nordeste 0.6 -- -- 75
2019-04-10 16:00:00 12.4 8 Nordeste 25 Nordeste 0.2 -- -- 76
2019-04-10 15:00:00 12.1 4 Este 27 Noroeste 0.4 -- -- 79
2019-04-10 14:00:00 14.2 5 Norte 18 Noroeste 0 -- -- 60
2019-04-10 13:00:00 12.6 5 Noroeste 12 Noroeste 0 -- -- 67
2019-04-10 12:00:00 11.3 3 Norte 7 Norte 0 -- -- 81
2019-04-10 11:00:00 7.6 0 Calma 4 Noroeste 0 -- -- 96
2019-04-10 10:00:00 5.9 0 Calma 2 Este 0 -- -- 100
2019-04-10 09:00:00 4.9 0 Calma 8 Oeste 0 -- -- 100
2019-04-10 08:00:00 4.1 2 Sudoeste 6 Sudoeste 0 -- -- 100
2019-04-10 07:00:00 5 3 Sudoeste 5 Sudoeste 0 -- -- 100
2019-04-10 06:00:00 4.9 0 Calma 4 Sudoeste 0 -- -- 100
2019-04-10 05:00:00 5 0 Calma 4 Oeste 0 -- -- 100
2019-04-10 04:00:00 5.1 0 Calma 3 Noroeste 0 -- -- 100
2019-04-10 03:00:00 4.7 3 Sudoeste 5 Sudoeste 0 -- -- 99
2019-04-10 02:00:00 4.7 0 Calma 10 Sudoeste 0 -- -- 99
2019-04-10 01:00:00 4.8 6 Sudoeste 9 Sudoeste 0 -- -- 97
2019-04-10 00:00:00 5.6 2 Oeste 6 Sudoeste 0 -- -- 96
2019-04-09 23:00:00 6.8 5 Sudoeste 8 Sudoeste 0 -- -- 96
2019-04-09 22:00:00 7.5 0 Calma 6 Sudoeste 0 -- -- 94
2019-04-09 21:00:00 8.1 5 Este 14 Sudeste 0.2 -- -- 91
2019-04-09 20:00:00 8.5 5 Sur 8 Sur 1.8 -- -- 93
2019-04-09 19:00:00 8.9 2 Noroeste -- -- -- -- -- 91
2019-04-09 18:00:00 9.2 3 Este 12 Noroeste 0.6 -- -- 92
2019-04-09 17:00:00 9.3 8 Noroeste 45 Oeste 6.6 -- -- 84
2019-04-09 16:00:00 15.7 8 Sur 18 Sudoeste 0 -- -- 51
2019-04-09 15:00:00 17.2 3 Este 21 Sudoeste 0 -- -- 44
2019-04-09 14:00:00 16.3 8 Sudoeste 32 Sudoeste 0 -- -- 54
2019-04-09 13:00:00 15 8 Sudoeste 31 Sudoeste 0 -- -- 57
2019-04-09 12:00:00 13.6 5 Sur 24 Sur 0 -- -- 60
2019-04-09 11:00:00 14.2 10 Sudoeste 26 Oeste 0 -- -- 59
2019-04-09 10:00:00 11.5 2 Sudeste 27 Sudeste 0 -- -- 63
2019-04-09 09:00:00 10.3 8 Sudeste 28 Este 0 -- -- 68
2019-04-09 08:00:00 8.4 11 Este 21 Este 0 -- -- 75
2019-04-09 07:00:00 8 8 Sur 21 Sudeste 0 -- -- 77
2019-04-09 06:00:00 5.5 5 Sur 13 Sur 0 -- -- 96
2019-04-09 05:00:00 3.6 5 Sudoeste 14 Sudoeste 0 -- -- 99
2019-04-09 04:00:00 4.3 2 Sudeste 9 Oeste 0 -- -- 98
2019-04-09 03:00:00 4.4 3 Sudeste 10 Sudoeste 0 -- -- 97
2019-04-09 02:00:00 5 0 Calma 7 Sudoeste 0 -- -- 96
2019-04-09 01:00:00 6.3 5 Sudeste 9 Sudeste 0 -- -- 96
2019-04-09 00:00:00 6.9 3 Sur 7 Sur 0 -- -- 93
2019-04-08 23:00:00 7.9 2 Este 7 Sudeste 0 -- -- 93
2019-04-08 22:00:00 9.7 2 Sudoeste 8 Sudoeste 0 -- -- 90
2019-04-08 21:00:00 10.4 4 Sudoeste 10 Sudoeste 0 -- -- 89
2019-04-08 20:00:00 11.3 3 Sudoeste 10 Nordeste 0 -- -- 82
2019-04-08 19:00:00 11.7 4 Norte 9 Noroeste 0 -- -- 78
2019-04-08 18:00:00 11 4 Noroeste 20 Noroeste 0.6 -- -- 84
2019-04-08 17:00:00 12.2 6 Oeste 17 Oeste 0 -- -- 77
2019-04-08 16:00:00 12.8 6 Nordeste 15 Nordeste 1 -- -- 77
2019-04-08 15:00:00 12.9 6 Este 11 Sudeste 0 -- -- 77
2019-04-08 14:00:00 12.5 5 Este 9 Este 0.4 -- -- 86
2019-04-08 13:00:00 12.1 4 Nordeste 16 Noroeste 0.6 -- -- 88
2019-04-08 12:00:00 11.4 7 Oeste 13 Noroeste 1.4 -- -- 88
2019-04-08 11:00:00 11.2 4 Este 6 Este 0 -- -- 88
2019-04-08 10:00:00 10.6 3 Oeste 21 Noroeste 0.2 -- -- 91
2019-04-08 09:00:00 10.1 3 Oeste 6 Nordeste 0 -- -- 93
2019-04-08 08:00:00 10 5 Oeste 8 Oeste 0 -- -- 90
2019-04-08 07:00:00 10.1 3 Oeste 9 Oeste 0.2 -- -- 87
2019-04-08 06:00:00 10.7 5 Oeste 13 Sudoeste 0.2 -- -- 77
2019-04-08 05:00:00 11.5 5 Sudoeste 22 Sur 0 -- -- 72
2019-04-08 04:00:00 11.7 6 Sur 26 Sur 0 -- -- 66
2019-04-08 03:00:00 11.5 9 Sur 24 Sudoeste 0 -- -- 64
2019-04-08 02:00:00 11.1 9 Sur 33 Sur 0 -- -- 63
2019-04-08 01:00:00 11.4 20 Sur 40 Sudeste 0 -- -- 62
2019-04-08 00:00:00 11.5 16 Sudeste 32 Sudeste 0 -- -- 62
2019-04-07 23:00:00 11.9 10 Sur 39 Oeste 0 -- -- 59
2019-04-07 22:00:00 13.8 21 Sudoeste 41 Sudoeste 0 -- -- 49
2019-04-07 21:00:00 14.4 9 Sur 22 Sudoeste 0 -- -- 39
2019-04-07 20:00:00 14.9 6 Sur 17 Sur 0 -- -- 42
2019-04-07 19:00:00 15.3 6 Sur 19 Sudoeste 0 -- -- 43
2019-04-07 18:00:00 15.4 5 Este 15 Este 0 -- -- 46
2019-04-07 17:00:00 14.7 4 Este 20 Nordeste 0 -- -- 47
2019-04-07 16:00:00 14.1 4 Norte 10 Norte 0 -- -- 50
2019-04-07 15:00:00 13.5 3 Noroeste 13 Nordeste 0 -- -- 55
2019-04-07 14:00:00 12.6 4 Nordeste 11 Este 0 -- -- 60
2019-04-07 13:00:00 11.6 7 Este 15 Nordeste 0 -- -- 65
2019-04-07 12:00:00 11.1 4 Este 10 Este 0 -- -- 72
2019-04-07 11:00:00 8.4 3 Norte 6 Norte 0 -- -- 92
2019-04-07 10:00:00 6.9 0 Calma 5 Sudeste 0 -- -- 98
2019-04-07 09:00:00 6.1 0 Calma 4 Este 0 -- -- 99
2019-04-07 08:00:00 5.6 0 Calma 6 Sudoeste 0 -- -- 99
2019-04-07 07:00:00 5.4 0 Calma 4 Sudoeste 0 -- -- 99
2019-04-07 06:00:00 5.3 0 Calma 5 Este 0 -- -- 99
2019-04-07 05:00:00 5.1 3 Sudoeste 6 Oeste 0 -- -- 99
2019-04-07 04:00:00 5.1 0 Calma 6 Norte 0 -- -- 99
2019-04-07 03:00:00 5.1 2 Sur 6 Sudoeste 0 -- -- 97
2019-04-07 02:00:00 5.9 3 Oeste 4 Oeste 0 -- -- 96
2019-04-07 01:00:00 6.6 3 Sudoeste 5 Sudoeste 0 -- -- 96
2019-04-07 00:00:00 6.8 0 Calma 4 Noroeste 0.2 -- -- 95
2019-04-06 23:00:00 6.8 0 Calma 13 Noroeste 0.2 -- -- 91
2019-04-06 22:00:00 7.3 5 Noroeste 21 Este 2.6 -- -- 89
2019-04-06 21:00:00 8.3 4 Oeste 25 Oeste 1.6 -- -- 82
2019-04-06 20:00:00 10.4 12 Noroeste 27 Noroeste 0 -- -- 66
2019-04-06 19:00:00 12.6 18 Oeste 31 Oeste 0.2 -- -- 55
2019-04-06 18:00:00 13.1 12 Sur 28 Sur 0 -- -- 54
2019-04-06 17:00:00 14.4 12 Sur 32 Sudeste 0 -- -- 47
2019-04-06 16:00:00 13.8 13 Sur 33 Sur 0 -- -- 46
2019-04-06 15:00:00 13.9 17 Sur 46 Sudeste 0 -- -- 48
2019-04-06 14:00:00 12.3 6 Nordeste 32 Sudoeste 0 -- -- 50
2019-04-06 13:00:00 12 10 Sur 33 Sudeste 0 -- -- 52
2019-04-06 12:00:00 11.7 9 Sur 24 Sudeste 0 -- -- 51
2019-04-06 11:00:00 10.6 7 Sudeste 31 Sudoeste 0 -- -- 55
2019-04-06 10:00:00 9.3 8 Sur 26 Sur 0 -- -- 60
2019-04-06 09:00:00 5.2 4 Norte 8 Sudoeste 0 -- -- 87
2019-04-06 08:00:00 2.9 3 Nordeste 9 Sudoeste 0 -- -- 91
2019-04-06 07:00:00 3 2 Oeste 8 Noroeste 0 -- -- 90
2019-04-06 06:00:00 3.7 2 Noroeste 8 Sudoeste 0 -- -- 89
2019-04-06 05:00:00 3.9 2 Noroeste 9 Sudoeste 0 -- -- 87
2019-04-06 04:00:00 5.3 4 Oeste 8 Sudoeste 0 -- -- 83
2019-04-06 03:00:00 6 3 Este 6 Sudoeste 0 -- -- 84
2019-04-06 02:00:00 6.2 0 Calma 8 Sudoeste 0 -- -- 84
2019-04-06 01:00:00 5.7 3 Sur 10 Sudoeste 0 -- -- 82
2019-04-06 00:00:00 5.6 5 Oeste 12 Sudoeste 0 -- -- 79
2019-04-05 23:00:00 6.4 3 Sudoeste 10 Sudoeste 0 -- -- 77
2019-04-05 22:00:00 8.1 3 Oeste 9 Sudoeste 0 -- -- 71
2019-04-05 21:00:00 10.5 3 Este 15 Este 0 -- -- 60
2019-04-05 20:00:00 11.7 5 Sudeste 19 Sudeste 0 -- -- 56
2019-04-05 19:00:00 12.5 11 Sur 20 Sudeste 0 -- -- 52
2019-04-05 18:00:00 13.3 6 Sur 19 Sur 0 -- -- 51
2019-04-05 17:00:00 13.4 12 Sudeste 23 Sudeste 0 -- -- 48
2019-04-05 16:00:00 13.1 13 Sudeste 28 Sudeste 0 -- -- 52
2019-04-05 15:00:00 13.2 11 Sur 25 Sur 0 -- -- 49
2019-04-05 14:00:00 13.2 12 Sur 27 Sur 0 -- -- 53
2019-04-05 13:00:00 12.1 13 Sudeste 34 Sudeste 0 -- -- 57
2019-04-05 12:00:00 11.8 9 Este 29 Este 0 -- -- 59
2019-04-05 11:00:00 10.7 10 Sudeste 22 Sudeste 0 -- -- 61
2019-04-05 10:00:00 10.3 10 Sudeste 21 Este 0 -- -- 61
2019-04-05 09:00:00 9.6 4 Sudeste 14 Sudeste 0 -- -- 61
2019-04-05 08:00:00 9.4 6 Este 16 Este 0 -- -- 60
2019-04-05 07:00:00 9.8 9 Sudeste 21 Sudeste 0 -- -- 58
2019-04-05 06:00:00 10 12 Sudeste 29 Sur 0 -- -- 58
2019-04-05 05:00:00 10.3 16 Sur 35 Sur 0 -- -- 56
2019-04-05 04:00:00 9.7 5 Sur 23 Sur 0 -- -- 60
2019-04-05 03:00:00 9.7 8 Sur 30 Sur 0 -- -- 62
2019-04-05 02:00:00 9.6 6 Sudeste 23 Sudeste 0 -- -- 64
2019-04-05 01:00:00 9.2 8 Sudeste 31 Sudeste 0 -- -- 67
2019-04-05 00:00:00 9.7 8 Sur 28 Sur 0 -- -- 63
2019-04-04 23:00:00 10.4 12 Sudeste 41 Sur 0 -- -- 56
2019-04-04 22:00:00 12.1 8 Sudoeste 37 Sur 0 -- -- 44
2019-04-04 21:00:00 13.2 15 Sur 27 Sudeste 0 -- -- 37
2019-04-04 20:00:00 13.6 8 Sur 36 Sudeste 0 -- -- 35
2019-04-04 19:00:00 14.5 10 Sur 31 Sudeste 0 -- -- 32
2019-04-04 18:00:00 15.3 8 Sudoeste 35 Sur 0 -- -- 30
2019-04-04 17:00:00 15.1 13 Sur 41 Sur 0 -- -- 32
2019-04-04 16:00:00 14.7 13 Sur 33 Sur 0 -- -- 33
2019-04-04 15:00:00 14.4 12 Sur 34 Sur 0 -- -- 35
2019-04-04 14:00:00 14.2 10 Sudeste 23 Sur 0 -- -- 38
2019-04-04 13:00:00 12.7 7 Sur 18 Sudoeste 0 -- -- 47
2019-04-04 12:00:00 10.7 6 Este 14 Oeste 0 -- -- 56
2019-04-04 11:00:00 8.4 2 Norte 6 Este 0 -- -- 69
2019-04-04 10:00:00 6 5 Sudeste 9 Este 0 -- -- 86
2019-04-04 09:00:00 3.1 3 Este 10 Sudeste 0 -- -- 96
2019-04-04 08:00:00 2.6 2 Este 7 Este 0 -- -- 97
2019-04-04 07:00:00 2.9 3 Sudoeste 6 Sudoeste 0 -- -- 98
2019-04-04 06:00:00 2.6 0 Calma 5 Sudoeste 0 -- -- 98
2019-04-04 05:00:00 2.2 0 Calma 7 Oeste 0 -- -- 98
2019-04-04 04:00:00 1.7 6 Sudoeste 9 Sudoeste 0 -- -- 96
2019-04-04 03:00:00 2.7 3 Este 6 Sudoeste 0 -- -- 96
2019-04-04 02:00:00 2.8 0 Calma 14 Este 0.2 -- -- 96
2019-04-04 01:00:00 2.5 3 Sudeste 8 Este 0.2 -- -- 96
2019-04-04 00:00:00 2.3 4 Este 8 Sur 0 -- -- 95
2019-04-03 23:00:00 2.4 3 Este 12 Sudeste 0 -- -- 94
2019-04-03 22:00:00 3.1 0 Calma 29 Oeste 3.6 -- -- 89
2019-04-03 21:00:00 6 0 Calma 14 Norte 0 -- -- 71
2019-04-03 20:00:00 6.5 8 Noroeste 28 Norte 0 -- -- 71
2019-04-03 19:00:00 7.9 9 Noroeste 25 Oeste 0 -- -- 59
2019-04-03 18:00:00 7.4 11 Noroeste 32 Oeste 0 -- -- 64
2019-04-03 17:00:00 6.9 11 Noroeste 37 Oeste 0 -- -- 76
2019-04-03 16:00:00 6.6 11 Noroeste 38 Noroeste 0.2 -- -- 85
2019-04-03 15:00:00 8.1 13 Noroeste 40 Oeste 0 -- -- 65
2019-04-03 14:00:00 7.4 24 Noroeste 46 Noroeste 0 -- -- 75
2019-04-03 13:00:00 9.9 9 Norte 40 Oeste 0.2 -- -- 63
2019-04-03 12:00:00 8.4 10 Noroeste 31 Norte 0 -- -- 71
2019-04-03 11:00:00 6.9 6 Norte 23 Noroeste 0 -- -- 82
2019-04-03 10:00:00 7 10 Noroeste 28 Norte 0 -- -- 80
2019-04-03 09:00:00 7.3 8 Noroeste 15 Noroeste 0 -- -- 85
2019-04-03 08:00:00 7.5 0 Calma 5 Este 0 -- -- 93
2019-04-03 07:00:00 7.6 0 Calma 6 Sudoeste 0 -- -- 92
2019-04-03 06:00:00 7.8 0 Calma 5 Oeste 0 -- -- 92
2019-04-03 05:00:00 7.8 3 Norte 6 Norte 0 -- -- 90
2019-04-03 04:00:00 8.1 3 Sudeste 9 Este 0 -- -- 91
2019-04-03 03:00:00 8.3 2 Sudoeste 11 Noroeste 0 -- -- 90
2019-04-03 02:00:00 8.6 2 Noroeste 4 Noroeste 0 -- -- 90
2019-04-03 01:00:00 8.8 5 Noroeste 14 Noroeste 0 -- -- 88
2019-04-03 00:00:00 9.2 3 Norte 10 Noroeste 0.4 -- -- 91
2019-04-02 23:00:00 9.5 3 Noroeste 11 Norte 0 -- -- 90
2019-04-02 22:00:00 9.8 4 Noroeste 13 Noroeste 0.2 -- -- 90
2019-04-02 21:00:00 10.6 5 Noroeste 23 Noroeste 0.2 -- -- 82
2019-04-02 20:00:00 11.9 7 Noroeste 21 Noroeste 0 -- -- 73
2019-04-02 19:00:00 12.5 10 Norte 32 Noroeste 0 -- -- 67
2019-04-02 18:00:00 13.1 8 Norte 19 Norte 0 -- -- 70
2019-04-02 17:00:00 13.7 8 Norte 27 Noroeste 0 -- -- 69
2019-04-02 16:00:00 15.5 15 Norte 27 Noroeste 0 -- -- 62
2019-04-02 15:00:00 16.1 10 Norte 22 Noroeste 0 -- -- 56
2019-04-02 14:00:00 15.4 12 Noroeste 23 Noroeste 0 -- -- 61
2019-04-02 13:00:00 15.8 6 Noroeste 17 Nordeste 0 -- -- 58
2019-04-02 12:00:00 14.2 4 Norte 10 Sudeste 0 -- -- 65
2019-04-02 11:00:00 12.5 4 Sudeste 15 Norte 0 -- -- 74
2019-04-02 10:00:00 9.1 2 Nordeste 5 Nordeste 0 -- -- 86
2019-04-02 09:00:00 5.3 0 Calma 5 Sudoeste 0 -- -- 95
2019-04-02 08:00:00 3.6 0 Calma 5 Oeste 0 -- -- 94
2019-04-02 07:00:00 4.2 0 Calma 5 Sudoeste 0 -- -- 94
2019-04-02 06:00:00 5.1 0 Calma 4 Sudoeste 0 -- -- 92
2019-04-02 05:00:00 6 0 Calma 7 Sudoeste 0 -- -- 90
2019-04-02 04:00:00 7 3 Sudoeste 5 Sudoeste 0 -- -- 89
2019-04-02 03:00:00 8.4 3 Sudoeste 7 Sudoeste 0 -- -- 84
2019-04-02 02:00:00 10.2 2 Sudoeste 5 Sudoeste 0 -- -- 83
2019-04-02 01:00:00 10.5 0 Calma 4 Sudoeste 0 -- -- 83
2019-04-02 00:00:00 11.1 0 Calma 6 Sudoeste 0 -- -- 78
2019-04-01 23:00:00 12.2 4 Sudoeste 5 Sudoeste 0 -- -- 75
2019-04-01 22:00:00 13.1 3 Oeste 12 Oeste 0 -- -- 70
2019-04-01 21:00:00 14.1 4 Oeste 13 Oeste 0 -- -- 68
2019-04-01 20:00:00 15.3 7 Noroeste 12 Noroeste 0 -- -- 62
2019-04-01 19:00:00 15.7 4 Norte 12 Este 0 -- -- 59
2019-04-01 18:00:00 16.1 4 Este 8 Norte 0 -- -- 56
2019-04-01 17:00:00 16.7 3 Oeste 8 Nordeste 0 -- -- 52
2019-04-01 16:00:00 16.6 5 Oeste 9 Sudoeste 0 -- -- 52
2019-04-01 15:00:00 15.7 3 Oeste 13 Sudoeste 0 -- -- 55
2019-04-01 14:00:00 16.3 5 Sudoeste 16 Sudeste 0 -- -- 54
2019-04-01 13:00:00 15.4 6 Sur 17 Sudoeste 0 -- -- 59
2019-04-01 12:00:00 13.7 5 Sur 19 Sur 0 -- -- 66
2019-04-01 11:00:00 12.7 10 Sur 17 Sur 0 -- -- 67
2019-04-01 10:00:00 11.3 5 Este 8 Sudeste 0 -- -- 74
2019-04-01 09:00:00 10.1 3 Sudeste 5 Sudeste 0 -- -- 76
2019-04-01 08:00:00 9.6 0 Calma 6 Sudoeste 0 -- -- 78
2019-04-01 07:00:00 10 3 Sudoeste 6 Sudoeste 0 -- -- 77
2019-04-01 06:00:00 10.8 0 Calma 5 Oeste 0 -- -- 73
2019-04-01 05:00:00 11.1 4 Sur 11 Este 0 -- -- 72
2019-04-01 04:00:00 11.5 6 Sudeste 21 Sudoeste 0 -- -- 67
2019-04-01 03:00:00 12.6 10 Sudeste 30 Sudeste 0 -- -- 59
2019-04-01 02:00:00 12.1 11 Sudeste 27 Sudeste 0 -- -- 57
2019-04-01 01:00:00 11 2 Norte 4 Sudoeste 0 -- -- 70
2019-04-01 00:00:00 11.5 0 Calma 4 Oeste 0 -- -- 67
2019-03-31 23:00:00 12.1 0 Calma 4 Oeste 0 -- -- 61
2019-03-31 22:00:00 13.6 3 Oeste 13 Noroeste 0 -- -- 53
2019-03-31 21:00:00 14.8 6 Noroeste 19 Noroeste 0 -- -- 49
2019-03-31 20:00:00 16.7 12 Noroeste 20 Oeste 0 -- -- 45
2019-03-31 19:00:00 19.1 7 Norte 22 Nordeste 0 -- -- 35
2019-03-31 18:00:00 19.5 13 Nordeste 27 Norte 0 -- -- 35
2019-03-31 17:00:00 20.4 11 Nordeste 22 Nordeste 0 -- -- 30
2019-03-31 16:00:00 19.9 5 Norte 14 Norte 0 -- -- 36
2019-03-31 15:00:00 20.1 6 Nordeste 18 Sudoeste 0 -- -- 34
2019-03-31 14:00:00 20.8 10 Sudeste 22 Sudeste 0 -- -- 38
2019-03-31 13:00:00 19.7 6 Sudeste 20 Este 0 -- -- 36
2019-03-31 12:00:00 18.3 9 Sudeste 17 Este 0 -- -- 40
2019-03-31 11:00:00 15.8 5 Sudeste 10 Sudeste 0 -- -- 51
2019-03-31 10:00:00 10.1 2 Nordeste 3 Este 0 -- -- 69
2019-03-31 09:00:00 4.8 0 Calma 3 Oeste 0 -- -- 86
2019-03-31 08:00:00 3.4 0 Calma 6 Oeste 0 -- -- 88
2019-03-31 07:00:00 3.5 0 Calma 6 Oeste 0 -- -- 88
2019-03-31 06:00:00 3.8 3 Oeste 5 Oeste 0 -- -- 87
2019-03-31 05:00:00 4.3 0 Calma 6 Sudoeste 0 -- -- 85
2019-03-31 03:00:00 5.8 2 Sudoeste 4 Sudoeste 0 -- -- 82
2019-03-31 01:00:00 7 3 Sudoeste 5 Sudoeste 0 -- -- 79
2019-03-31 00:00:00 8.4 2 Sudoeste 4 Oeste 0 -- -- 77
2019-03-30 23:00:00 10.3 3 Sudoeste 5 Sudoeste 0 -- -- 71
2019-03-30 22:00:00 11.4 0 Calma 7 Sudoeste 0 -- -- 67
2019-03-30 21:00:00 13.5 2 Sudoeste 10 Oeste 0 -- -- 59
2019-03-30 20:00:00 16.6 2 Sudoeste 14 Oeste 0 -- -- 50
2019-03-30 19:00:00 19 7 Sudoeste 10 Sudoeste 0 -- -- 44
2019-03-30 18:00:00 20.5 3 Sur 15 Sur 0 -- -- 32
2019-03-30 17:00:00 20.9 7 Sur 15 Sur 0 -- -- 31
2019-03-30 16:00:00 20.6 4 Sudoeste 15 Sudeste 0 -- -- 32
2019-03-30 15:00:00 20.4 5 Sudeste 21 Sur 0 -- -- 33
2019-03-30 14:00:00 20.5 9 Sur 24 Sudeste 0 -- -- 36
2019-03-30 13:00:00 20 7 Sur 25 Sudeste 0 -- -- 39
2019-03-30 12:00:00 18.2 10 Sudeste 22 Sur 0 -- -- 42
2019-03-30 11:00:00 16.3 13 Sur 27 Sur 0 -- -- 45
2019-03-30 10:00:00 14.4 14 Sudeste 26 Sur 0 -- -- 47
2019-03-30 09:00:00 11.9 14 Sudeste 23 Sur 0 -- -- 52
2019-03-30 08:00:00 10.6 13 Sudeste 29 Sudeste 0 -- -- 54
2019-03-30 07:00:00 10.1 10 Sudeste 19 Este 0 -- -- 54
2019-03-30 06:00:00 10.8 9 Sudeste 21 Sudeste 0 -- -- 53
2019-03-30 05:00:00 11.4 9 Sudeste 22 Este 0 -- -- 52
2019-03-30 04:00:00 12.2 6 Sudeste 17 Este 0 -- -- 48
2019-03-30 03:00:00 13.9 8 Este 28 Sudeste 0 -- -- 41
2019-03-30 02:00:00 14.2 6 Sudeste 28 Sudeste 0 -- -- 43
2019-03-30 01:00:00 14.7 10 Sudeste 24 Sur 0 -- -- 44
2019-03-30 00:00:00 15.1 9 Sudeste 23 Sudeste 0 -- -- 43
2019-03-29 23:00:00 15.4 8 Sudeste 21 Sur 0 -- -- 40
2019-03-29 22:00:00 16.2 7 Sur 25 Sur 0 -- -- 34
2019-03-29 21:00:00 16.9 16 Sur 30 Sur 0 -- -- 32
2019-03-29 20:00:00 17.9 9 Sur 26 Sur 0 -- -- 33
2019-03-29 19:00:00 19.7 13 Sudeste 26 Sudeste 0 -- -- 31
2019-03-29 18:00:00 20.5 13 Este 22 Sudeste 0 -- -- 32
2019-03-29 17:00:00 20.8 10 Sudeste 21 Sudeste 0 -- -- 30
2019-03-29 16:00:00 20.4 10 Sudeste 24 Sudeste 0 -- -- 31
2019-03-29 15:00:00 19.9 10 Sudeste 33 Sudeste 0 -- -- 33
2019-03-29 14:00:00 20 12 Sur 24 Sur 0 -- -- 32
2019-03-29 13:00:00 19.5 8 Sur 25 Sur 0 -- -- 35
2019-03-29 12:00:00 17.8 9 Sudeste 19 Sudeste 0 -- -- 39
2019-03-29 11:00:00 15.2 12 Sur 22 Sur 0 -- -- 49
2019-03-29 10:00:00 12.6 13 Sudeste 21 Sudeste 0 -- -- 55
2019-03-29 09:00:00 5.3 0 Calma 4 Nordeste 0 -- -- 82
2019-03-29 08:00:00 1.6 0 Calma 3 Oeste 0 -- -- 96
2019-03-29 07:00:00 0.5 0 Calma 4 Sudoeste 0 -- -- 94
2019-03-29 06:00:00 0.8 0 Calma 5 Sudoeste 0 -- -- 94
2019-03-29 05:00:00 1.2 2 Oeste 8 Sudoeste 0 -- -- 94
2019-03-29 04:00:00 1.5 3 Oeste 6 Sudoeste 0 -- -- 93
2019-03-29 03:00:00 2 3 Sudoeste 6 Sudoeste 0 -- -- 92
2019-03-29 02:00:00 2.6 0 Calma 7 Sudoeste 0 -- -- 91
2019-03-29 01:00:00 3.3 0 Calma 5 Sudoeste 0 -- -- 91
2019-03-29 00:00:00 4.1 2 Sur 5 Sudoeste 0 -- -- 88
2019-03-28 23:00:00 5.4 0 Calma 8 Sudoeste 0 -- -- 85
2019-03-28 22:00:00 6.8 4 Sudoeste 8 Sudoeste 0 -- -- 80
2019-03-28 21:00:00 8.3 7 Sudoeste 12 Sudoeste 0 -- -- 76
2019-03-28 20:00:00 10.1 5 Oeste 20 Norte 0 -- -- 70
2019-03-28 19:00:00 12 12 Noroeste 23 Noroeste 0 -- -- 64
2019-03-28 18:00:00 13.7 13 Noroeste 22 Noroeste 0 -- -- 59
2019-03-28 17:00:00 14.6 12 Noroeste 21 Norte 0 -- -- 57
2019-03-28 16:00:00 15.2 11 Noroeste 19 Noroeste 0 -- -- 55
2019-03-28 15:00:00 15.3 6 Norte 21 Nordeste 0 -- -- 51
2019-03-28 14:00:00 15.6 8 Nordeste 21 Nordeste 0 -- -- 52
2019-03-28 13:00:00 14.6 8 Norte 24 Norte 0 -- -- 53
2019-03-28 12:00:00 13.5 9 Norte 18 Norte 0 -- -- 56
2019-03-28 11:00:00 12.5 6 Noroeste 16 Noroeste 0 -- -- 65
2019-03-28 10:00:00 10.7 3 Nordeste 6 Norte 0 -- -- 74
2019-03-28 09:00:00 7.1 0 Calma 4 Noroeste 0 -- -- 88
2019-03-28 08:00:00 5.9 0 Calma 4 Noroeste 0 -- -- 91
2019-03-28 07:00:00 4.9 0 Calma 7 Sudoeste 0 -- -- 91
2019-03-28 06:00:00 4.7 0 Calma 3 Sudoeste 0 -- -- 87
2019-03-28 05:00:00 6.4 0 Calma 4 Noroeste 0 -- -- 86
2019-03-28 04:00:00 6.5 0 Calma 6 Este 0 -- -- 85
2019-03-28 03:00:00 6.6 0 Calma 3 Noroeste 0 -- -- 86
2019-03-28 02:00:00 6.1 0 Calma 4 Sudoeste 0 -- -- 85
2019-03-28 01:00:00 5.7 0 Calma 3 Sudoeste 0 -- -- 87
2019-03-28 00:00:00 4.7 0 Calma 6 Sudoeste 0 -- -- 88
2019-03-27 23:00:00 5 4 Oeste 7 Sudoeste 0 -- -- 84
2019-03-27 22:00:00 5.5 4 Sudoeste 8 Sudoeste 0 -- -- 80
2019-03-27 21:00:00 7.4 3 Sudoeste 13 Noroeste 0 -- -- 74
2019-03-27 20:00:00 8.6 9 Noroeste 22 Noroeste 0 -- -- 71
2019-03-27 19:00:00 10 13 Noroeste 27 Noroeste 0 -- -- 63
2019-03-27 18:00:00 11.8 13 Noroeste 25 Noroeste 0 -- -- 54
2019-03-27 17:00:00 13.1 13 Noroeste 26 Norte 0 -- -- 48
2019-03-27 16:00:00 14 13 Noroeste 25 Noroeste 0 -- -- 48
2019-03-27 15:00:00 14.9 10 Norte 22 Norte 0 -- -- 45
2019-03-27 14:00:00 15 10 Norte 20 Norte 0 -- -- 41
2019-03-27 13:00:00 14.5 8 Norte 21 Norte 0 -- -- 43
2019-03-27 12:00:00 13.3 7 Noroeste 22 Oeste 0 -- -- 44
2019-03-27 11:00:00 11.6 8 Oeste 15 Oeste 0 -- -- 60
2019-03-27 10:00:00 8.1 2 Noroeste 4 Norte 0 -- -- 73
2019-03-27 09:00:00 5.6 0 Calma 4 Nordeste 0 -- -- 81
2019-03-27 08:00:00 1.3 0 Calma 4 Sudoeste 0 -- -- 95
2019-03-27 07:00:00 0.2 0 Calma 3 Sudoeste 0 -- -- 93
2019-03-27 06:00:00 0.8 0 Calma 4 Sudoeste 0 -- -- 91
2019-03-27 05:00:00 1.5 0 Calma 5 Sudoeste 0 -- -- 91
2019-03-27 04:00:00 2.4 3 Sudoeste 5 Sudoeste 0 -- -- 88
2019-03-27 03:00:00 3.7 0 Calma 6 Sudoeste 0 -- -- 85
2019-03-27 02:00:00 5.3 0 Calma 6 Sur 0 -- -- 82
2019-03-27 01:00:00 6.5 2 Sudeste 4 Sudeste 0 -- -- 79
2019-03-27 00:00:00 6.3 0 Calma 4 Sudoeste 0 -- -- 80